Time;durP1;ratioP1;P1;durP2;ratioP2;P2;SDS_P1;SDS_P2;PMS_P1;PMS_P2;Temp;Humidity;BMP_temperature;BMP_pressure;BME280_temperature;BME280_humidity;BME280_pressure;Samples;Min_cycle;Max_cycle;Signal;HPM_P1;HPM_P2
2022/05/05 00:00:55;;;;;;;23.90;5.88;;;;;;;8.55;100.00;101806.03;5044985;28;20044;-82
2022/05/05 00:03:21;;;;;;;22.08;6.18;;;;;;;8.40;100.00;101797.50;5039489;28;20041;-83
2022/05/05 00:05:47;;;;;;;23.42;6.32;;;;;;;8.37;100.00;101805.81;5048891;28;20051;-83
2022/05/05 00:08:12;;;;;;;23.17;6.43;;;;;;;8.35;100.00;101805.06;5043878;28;20112;-83
2022/05/05 00:16:09;;;;;;;20.67;6.57;;;;;;;8.17;100.00;101802.19;5049172;28;20089;-81
2022/05/05 00:18:35;;;;;;;17.55;5.70;;;;;;;8.11;100.00;101806.25;5027621;28;20116;-82
2022/05/05 00:21:00;;;;;;;24.95;7.00;;;;;;;8.03;100.00;101799.88;5043401;28;20110;-83
2022/05/05 00:23:28;;;;;;;18.38;5.43;;;;;;;8.04;100.00;101806.91;5043827;28;20040;-82
2022/05/05 00:25:54;;;;;;;22.48;6.05;;;;;;;8.01;100.00;101801.81;5036835;28;20115;-82
2022/05/05 00:28:19;;;;;;;19.77;5.15;;;;;;;7.97;100.00;101800.41;5024051;28;20116;-84
2022/05/05 00:30:45;;;;;;;23.05;6.95;;;;;;;8.02;100.00;101803.50;5042368;28;20032;-84
2022/05/05 00:33:11;;;;;;;17.67;5.93;;;;;;;8.15;100.00;101805.00;5029345;28;20037;-84
2022/05/05 00:35:36;;;;;;;21.42;6.05;;;;;;;8.24;100.00;101805.19;5014238;28;20387;-81
2022/05/05 00:38:03;;;;;;;20.88;6.32;;;;;;;8.34;100.00;101804.25;5034811;28;20040;-82
2022/05/05 00:40:29;;;;;;;24.05;6.70;;;;;;;8.43;100.00;101801.75;5033525;28;20552;-82
2022/05/05 00:42:55;;;;;;;22.48;6.28;;;;;;;8.52;100.00;101795.56;5053600;28;20032;-83
2022/05/05 00:45:23;;;;;;;22.95;6.60;;;;;;;8.58;100.00;101800.41;5027874;28;20060;-83
2022/05/05 00:47:48;;;;;;;20.45;5.95;;;;;;;8.62;100.00;101800.97;5054902;28;20064;-84
2022/05/05 00:50:15;;;;;;;21.67;5.57;;;;;;;8.60;100.00;101790.38;5031549;28;20086;-83
2022/05/05 00:52:41;;;;;;;19.35;5.70;;;;;;;8.67;100.00;101796.88;5043368;28;20033;-83
2022/05/05 00:55:07;;;;;;;19.20;6.22;;;;;;;8.69;100.00;101791.38;5033548;28;20033;-83
2022/05/05 00:57:34;;;;;;;25.40;6.72;;;;;;;8.69;100.00;101791.38;5038452;28;20040;-83
2022/05/05 01:00:01;;;;;;;17.00;6.15;;;;;;;8.60;100.00;101785.03;5032722;28;20029;-82
2022/05/05 01:02:26;;;;;;;19.70;5.38;;;;;;;8.55;100.00;101790.78;5054069;28;20028;-81
2022/05/05 01:04:52;;;;;;;19.13;5.47;;;;;;;8.53;100.00;101799.97;5033747;28;20033;-82
2022/05/05 01:07:18;;;;;;;20.27;6.30;;;;;;;8.39;100.00;101774.38;5039987;28;20033;-81
2022/05/05 01:09:43;;;;;;;18.90;6.03;;;;;;;8.45;100.00;101778.34;5036862;28;20032;-82
2022/05/05 01:12:09;;;;;;;17.40;5.85;;;;;;;8.71;100.00;101803.66;5048284;28;20082;-82
2022/05/05 01:14:35;;;;;;;24.77;6.57;;;;;;;8.85;100.00;101796.22;5040233;28;20048;-84
2022/05/05 01:17:01;;;;;;;23.98;6.60;;;;;;;8.93;100.00;101786.47;5014936;28;20032;-81
2022/05/05 01:19:27;;;;;;;20.67;6.00;;;;;;;9.09;100.00;101793.13;5033375;28;20064;-83
2022/05/05 01:21:57;;;;;;;21.45;5.38;;;;;;;9.21;100.00;101790.16;5032495;28;20486;-82
2022/05/05 01:28:10;;;;;;;18.52;5.68;;;;;;;9.22;100.00;101780.28;5050382;28;20040;-81
2022/05/05 01:29:54;;;;;;;17.77;5.65;;;;;;;9.53;100.00;101786.31;5045753;28;20541;-80
2022/05/05 01:32:19;;;;;;;16.70;5.68;;;;;;;9.62;100.00;101787.28;5016410;28;20033;-84
2022/05/05 01:34:45;;;;;;;22.67;6.68;;;;;;;9.64;100.00;101777.25;5049039;28;20091;-83
2022/05/05 01:37:10;;;;;;;19.50;6.32;;;;;;;9.74;100.00;101782.59;5031913;28;20036;-81
2022/05/05 01:39:36;;;;;;;19.20;5.97;;;;;;;9.75;100.00;101779.75;5031388;28;20049;-81
2022/05/05 01:42:02;;;;;;;20.60;5.78;;;;;;;9.81;100.00;101789.06;5035704;28;20108;-83
2022/05/05 01:44:27;;;;;;;20.25;5.97;;;;;;;9.88;100.00;101787.50;5048922;28;20033;-81
2022/05/05 01:46:53;;;;;;;21.13;6.53;;;;;;;9.89;100.00;101784.66;5021577;28;20383;-82
2022/05/05 01:49:19;;;;;;;20.35;6.35;;;;;;;9.97;100.00;101785.78;5016048;28;20032;-84
2022/05/05 01:51:45;;;;;;;22.67;6.28;;;;;;;9.99;100.00;101779.25;5055682;28;20045;-84
2022/05/05 01:54:11;;;;;;;22.92;5.85;;;;;;;10.03;100.00;101777.13;5031359;28;20509;-82
2022/05/05 01:56:36;;;;;;;18.05;5.90;;;;;;;10.07;100.00;101776.69;5047013;28;20068;-82
2022/05/05 01:59:02;;;;;;;18.05;5.95;;;;;;;10.08;100.00;101775.72;5048226;28;20068;-83
2022/05/05 02:01:28;;;;;;;23.92;6.90;;;;;;;10.11;100.00;101770.03;5032373;28;20032;-83
2022/05/05 02:03:56;;;;;;;22.98;6.50;;;;;;;10.15;100.00;101772.41;5034543;28;20037;-84
2022/05/05 02:06:21;;;;;;;23.25;6.05;;;;;;;10.13;100.00;101773.44;5028756;28;20115;-82
2022/05/05 02:08:48;;;;;;;17.73;5.47;;;;;;;10.18;100.00;101767.59;5036326;28;20124;-85
2022/05/05 02:11:14;;;;;;;13.10;5.25;;;;;;;10.23;100.00;101777.91;5032636;28;20139;-81
2022/05/05 02:13:43;;;;;;;16.85;5.50;;;;;;;10.21;100.00;101769.13;5028299;28;20043;-82
2022/05/05 02:16:09;;;;;;;16.13;5.75;;;;;;;10.25;100.00;101771.38;5046893;28;20467;-82
2022/05/05 02:18:34;;;;;;;18.15;6.28;;;;;;;10.24;100.00;101769.69;5053617;28;20036;-82
2022/05/05 02:21:00;;;;;;;18.35;4.93;;;;;;;10.25;100.00;101766.00;5012127;28;20044;-84
2022/05/05 02:23:25;;;;;;;14.93;5.50;;;;;;;10.30;100.00;101781.72;5050829;28;20048;-83
2022/05/05 02:25:52;;;;;;;19.45;6.13;;;;;;;10.15;100.00;101750.91;5044195;28;20041;-82
2022/05/05 02:28:20;;;;;;;17.05;6.15;;;;;;;10.28;100.00;101765.72;5037047;28;20028;-82
2022/05/05 02:30:46;;;;;;;17.27;5.15;;;;;;;10.14;100.00;101747.38;5041667;28;20033;-83
2022/05/05 02:33:12;;;;;;;18.17;5.65;;;;;;;10.29;100.00;101767.44;5039602;28;20103;-82
2022/05/05 02:35:37;;;;;;;17.75;5.80;;;;;;;10.23;100.00;101753.69;5011802;28;20033;-82
2022/05/05 02:40:47;;;;;;;16.08;5.30;;;;;;;10.32;100.00;101769.00;5065645;28;20013;-81
2022/05/05 02:43:16;;;;;;;16.85;5.47;;;;;;;10.24;100.00;101753.56;5050439;28;20023;-83
2022/05/05 02:45:41;;;;;;;21.67;6.53;;;;;;;10.24;100.00;101758.94;5021258;28;20032;-80
2022/05/05 02:58:21;;;;;;;17.40;5.75;;;;;;;10.28;100.00;101763.03;5008088;28;20470;-81
2022/05/05 03:01:32;;;;;;;17.25;4.85;;;;;;;10.22;100.00;101749.34;5015050;28;20063;-81
2022/05/05 03:04:17;;;;;;;17.10;5.38;;;;;;;10.10;100.00;101737.91;4994673;28;20068;-83
2022/05/05 03:13:42;;;;;;;14.57;4.95;;;;;;;10.27;100.00;101765.88;4958497;28;20049;-84
2022/05/05 03:16:29;;;;;;;18.17;5.05;;;;;;;10.18;100.00;101753.31;5042125;28;20041;-84
2022/05/05 03:19:07;;;;;;;15.23;4.65;;;;;;;9.94;100.00;101714.38;5030411;28;20041;-84
2022/05/05 03:29:16;;;;;;;11.65;4.65;;;;;;;9.98;100.00;101731.06;4968720;28;20052;-84
2022/05/05 03:31:42;;;;;;;14.57;4.65;;;;;;;10.31;100.00;101789.63;4960199;28;20554;-82
2022/05/05 03:34:09;;;;;;;14.90;4.30;;;;;;;10.34;100.00;101788.47;4960650;28;20125;-82
2022/05/05 03:36:35;;;;;;;14.27;4.90;;;;;;;10.31;100.00;101780.72;5036073;28;20104;-85
2022/05/05 03:39:01;;;;;;;13.80;4.15;;;;;;;10.31;100.00;101786.09;5045354;28;20033;-82
2022/05/05 03:41:26;;;;;;;10.52;3.95;;;;;;;10.26;100.00;101785.66;5029709;28;20091;-83
2022/05/05 03:43:52;;;;;;;13.48;3.63;;;;;;;10.27;100.00;101780.19;5012131;28;20044;-80
2022/05/05 03:46:18;;;;;;;14.27;4.43;;;;;;;10.24;100.00;101785.81;5046379;28;20424;-83
2022/05/05 03:48:44;;;;;;;11.65;4.20;;;;;;;10.24;100.00;101782.25;5035742;28;20021;-84
2022/05/05 03:51:10;;;;;;;11.60;4.25;;;;;;;10.25;100.00;101778.59;5056511;28;20024;-83
2022/05/05 03:53:36;;;;;;;15.23;4.20;;;;;;;10.27;100.00;101782.00;5029696;28;20044;-84
2022/05/05 03:56:03;;;;;;;10.02;4.25;;;;;;;10.30;100.00;101789.78;5032244;28;20028;-84
2022/05/05 03:58:28;;;;;;;17.85;4.60;;;;;;;10.34;100.00;101786.63;5048024;28;20029;-84
2022/05/05 04:00:54;;;;;;;16.17;4.50;;;;;;;10.34;100.00;101785.78;5047613;28;20029;-85
2022/05/05 04:03:32;;;;;;;14.32;4.30;;;;;;;10.33;100.00;101782.25;5025448;28;20478;-84
2022/05/05 04:06:05;;;;;;;15.63;3.65;;;;;;;10.25;100.00;101770.53;5034709;28;20124;-84
2022/05/05 04:08:31;;;;;;;14.57;4.65;;;;;;;10.21;100.00;101758.38;5018139;28;20047;-83
2022/05/05 04:10:57;;;;;;;11.45;3.78;;;;;;;10.37;100.00;101790.03;5039920;28;20086;-82
2022/05/05 04:13:23;;;;;;;13.32;4.30;;;;;;;10.38;100.00;101792.56;5045138;28;20449;-84
2022/05/05 04:15:48;;;;;;;11.65;4.35;;;;;;;10.39;100.00;101791.56;5015192;28;20040;-85
2022/05/05 04:18:14;;;;;;;15.68;4.60;;;;;;;10.38;100.00;101787.19;5019439;28;20086;-84
2022/05/05 04:20:42;;;;;;;13.10;4.68;;;;;;;10.32;100.00;101785.97;5063312;28;20039;-85
2022/05/05 04:23:08;;;;;;;11.30;4.22;;;;;;;10.41;100.00;101786.88;5040557;28;20028;-83
2022/05/05 04:25:41;;;;;;;14.35;4.35;;;;;;;10.47;100.00;101801.56;5016434;28;20094;-83
2022/05/05 04:28:11;;;;;;;14.75;4.00;;;;;;;10.49;100.00;101804.97;5033597;28;20045;-81
2022/05/05 04:30:40;;;;;;;12.00;3.88;;;;;;;10.50;100.00;101796.75;5014707;28;20041;-82
2022/05/05 04:33:07;;;;;;;18.83;5.03;;;;;;;10.51;100.00;101801.13;5011424;28;20072;-83
2022/05/05 04:35:32;;;;;;;12.40;4.15;;;;;;;10.54;100.00;101802.69;5054197;28;20059;-83
2022/05/05 04:37:58;;;;;;;13.57;3.70;;;;;;;10.45;100.00;101782.06;5017767;28;20497;-82
2022/05/05 04:40:23;;;;;;;14.23;4.13;;;;;;;10.55;100.00;101798.97;5051388;28;20091;-85
2022/05/05 04:42:49;;;;;;;11.02;4.00;;;;;;;10.54;100.00;101803.53;5049850;28;20446;-84
2022/05/05 04:45:15;;;;;;;12.35;3.47;;;;;;;10.57;100.00;101805.06;5014683;28;20037;-83
2022/05/05 04:47:41;;;;;;;10.90;3.55;;;;;;;10.55;100.00;101801.66;5049110;28;20033;-82
2022/05/05 04:50:07;;;;;;;10.85;3.80;;;;;;;10.56;100.00;101806.91;5032838;28;20055;-85
2022/05/05 04:52:32;;;;;;;14.15;5.55;;;;;;;10.58;100.00;101812.13;5048873;28;20406;-85
2022/05/05 04:54:58;;;;;;;11.85;4.35;;;;;;;10.56;100.00;101806.91;5017270;28;20091;-86
2022/05/05 04:57:24;;;;;;;13.60;3.88;;;;;;;10.55;100.00;101810.59;5052813;28;20123;-83
2022/05/05 04:59:50;;;;;;;15.98;4.53;;;;;;;10.60;100.00;101818.22;5034281;28;20120;-83
2022/05/05 05:02:29;;;;;;;13.95;4.55;;;;;;;10.59;100.00;101808.47;5021400;28;20037;-82
2022/05/05 05:06:22;;;;;;;18.48;4.68;;;;;;;10.34;100.00;101780.41;5045086;28;20509;-83
2022/05/05 05:09:37;;;;;;;16.33;4.20;;;;;;;10.66;100.00;101822.97;4995334;28;20426;-84
2022/05/05 05:12:04;;;;;;;14.40;4.82;;;;;;;10.66;100.00;101825.66;4993642;28;20130;-83
2022/05/05 05:14:30;;;;;;;13.95;4.57;;;;;;;10.67;100.00;101823.84;4960493;28;20120;-83
2022/05/05 05:16:55;;;;;;;21.63;5.47;;;;;;;10.66;100.00;101822.13;5030808;28;20136;-85
2022/05/05 05:19:21;;;;;;;17.15;5.05;;;;;;;10.72;100.00;101827.78;5039528;28;20177;-86
2022/05/05 05:22:23;;;;;;;16.65;5.32;;;;;;;10.73;100.00;101829.47;5047225;28;20044;-84
2022/05/05 05:28:53;;;;;;;11.55;4.45;;;;;;;10.77;100.00;101838.09;4896177;28;20087;-84
2022/05/05 05:32:25;;;;;;;16.63;4.43;;;;;;;10.85;100.00;101834.63;4959323;28;20065;-83
2022/05/05 05:34:50;;;;;;;18.02;5.88;;;;;;;10.53;100.00;101774.06;4930868;28;20043;-83
2022/05/05 05:37:16;;;;;;;12.65;4.68;;;;;;;10.94;100.00;101836.41;4911904;29;20457;-85
2022/05/05 05:40:16;;;;;;;20.17;5.20;;;;;;;10.97;100.00;101842.34;4946307;28;20046;-87
2022/05/05 05:43:42;;;;;;;11.90;4.57;;;;;;;10.99;100.00;101840.34;5047409;28;20037;-83
2022/05/05 05:46:09;;;;;;;16.38;5.40;;;;;;;11.02;100.00;101846.44;5021250;28;20056;-83
2022/05/05 05:49:16;;;;;;;17.92;5.85;;;;;;;10.80;100.00;101805.50;5060305;28;20024;-84
2022/05/05 06:12:52;;;;;;;22.83;6.10;;;;;;;11.37;100.00;101853.66;4823230;29;20073;-83
2022/05/05 06:15:57;;;;;;;26.15;6.78;;;;;;;11.39;100.00;101846.28;4804807;29;20198;-84
2022/05/05 06:19:20;;;;;;;20.95;5.97;;;;;;;11.41;100.00;101845.13;4788238;29;20134;-83
2022/05/05 06:25:56;;;;;;;15.48;4.55;;;;;;;11.26;100.00;101791.97;4917283;29;20050;-84
2022/05/05 06:28:43;;;;;;;14.98;4.30;;;;;;;11.63;100.00;101832.19;4931810;28;20529;-83
2022/05/05 06:31:46;;;;;;;14.85;4.40;;;;;;;11.48;100.00;101801.41;4984697;28;20496;-85
2022/05/05 06:34:32;;;;;;;14.65;4.72;;;;;;;11.74;100.00;101845.38;5031800;28;20046;-83
2022/05/05 06:37:34;;;;;;;18.20;6.45;;;;;;;11.39;100.00;101787.03;5031325;28;20451;-83
2022/05/05 06:40:11;;;;;;;20.00;5.47;;;;;;;11.91;100.00;101854.50;5032501;28;20045;-83
2022/05/05 06:42:37;;;;;;;14.95;5.03;;;;;;;11.78;100.00;101825.22;5047229;28;20029;-86
2022/05/05 06:45:03;;;;;;;14.52;4.43;;;;;;;12.12;100.00;101854.13;5030067;28;20037;-85
2022/05/05 06:47:32;;;;;;;13.50;4.65;;;;;;;12.12;100.00;101848.72;5033790;28;20044;-84
2022/05/05 06:49:58;;;;;;;13.48;4.88;;;;;;;12.19;100.00;101860.53;5045792;28;20151;-83
2022/05/05 06:52:24;;;;;;;13.50;4.30;;;;;;;12.20;100.00;101870.34;5045504;28;20028;-81
2022/05/05 06:54:50;;;;;;;11.40;4.00;;;;;;;12.20;100.00;101867.66;5043756;28;20132;-80
2022/05/05 06:57:15;;;;;;;7.65;3.45;;;;;;;12.22;100.00;101865.63;5025843;28;20123;-82
2022/05/05 06:59:41;;;;;;;8.48;3.75;;;;;;;12.21;100.00;101866.63;5043076;28;20092;-82
2022/05/05 07:02:06;;;;;;;11.77;4.28;;;;;;;12.31;100.00;101869.22;5012095;28;20020;-80
2022/05/05 07:07:19;;;;;;;15.15;4.85;;;;;;;12.49;100.00;101874.53;5028852;28;20040;-84
2022/05/05 07:12:30;;;;;;;9.35;3.60;;;;;;;12.42;100.00;101881.59;5036948;28;20037;-81
2022/05/05 07:14:56;;;;;;;9.45;4.03;;;;;;;12.28;100.00;101874.94;5045144;28;20033;-83
2022/05/05 07:17:23;;;;;;;14.45;3.95;;;;;;;12.20;100.00;101867.66;5029167;28;20033;-85
2022/05/05 07:19:49;;;;;;;13.65;4.35;;;;;;;12.19;100.00;101865.09;5028439;28;20082;-82
2022/05/05 07:22:15;;;;;;;12.60;4.38;;;;;;;12.37;100.00;101889.31;5027576;28;20040;-82
2022/05/05 07:24:40;;;;;;;16.55;5.00;;;;;;;12.41;100.00;101882.56;5042500;28;20036;-81
2022/05/05 07:27:06;;;;;;;12.38;4.40;;;;;;;12.55;100.00;101871.19;5035859;28;20033;-81
2022/05/05 07:29:33;;;;;;;12.45;4.68;;;;;;;12.68;100.00;101882.38;5008258;28;20041;-81
2022/05/05 07:31:59;;;;;;;17.05;5.82;;;;;;;12.60;100.00;101849.13;5050433;28;20450;-81
2022/05/05 07:34:25;;;;;;;13.07;5.43;;;;;;;12.99;100.00;101889.91;5013161;28;20038;-82
2022/05/05 07:36:50;;;;;;;13.10;3.78;;;;;;;13.12;100.00;101884.88;5052421;28;20047;-82
2022/05/05 07:39:16;;;;;;;8.43;4.00;;;;;;;13.32;100.00;101887.34;5029435;28;20067;-81
2022/05/05 07:41:42;;;;;;;15.55;4.88;;;;;;;13.29;100.00;101879.56;5026502;28;20483;-80
2022/05/05 07:44:08;;;;;;;13.02;5.50;;;;;;;13.37;100.00;101890.38;5026246;28;20520;-81
2022/05/05 07:46:34;;;;;;;13.68;4.97;;;;;;;13.37;100.00;101893.09;5009964;28;20032;-81
2022/05/05 07:49:01;;;;;;;12.63;5.13;;;;;;;13.38;100.00;101892.06;5035974;28;20040;-81
2022/05/05 07:51:28;;;;;;;12.02;4.22;;;;;;;13.43;100.00;101895.09;5045286;28;20037;-82
2022/05/05 07:56:39;;;;;;;10.15;4.35;;;;;;;13.59;100.00;101896.97;5032033;28;20036;-82
2022/05/05 07:59:05;;;;;;;10.57;5.05;;;;;;;13.71;99.79;101901.06;5017579;28;20633;-83
2022/05/05 08:01:31;;;;;;;17.67;5.15;;;;;;;13.73;99.32;101887.34;5042806;28;20135;-83
2022/05/05 08:03:59;;;;;;;13.90;5.05;;;;;;;13.58;98.56;101890.75;5027100;28;20064;-83
2022/05/05 08:06:24;;;;;;;14.55;5.28;;;;;;;13.56;98.93;101892.75;5026991;28;20040;-81
2022/05/05 08:08:50;;;;;;;12.32;4.05;;;;;;;13.56;99.26;101900.03;5030731;28;20025;-82
2022/05/05 08:11:16;;;;;;;16.23;5.68;;;;;;;13.62;98.86;101900.19;5039887;28;20064;-83
2022/05/05 08:13:41;;;;;;;13.27;4.88;;;;;;;13.72;98.94;101896.50;5008417;28;20090;-82
2022/05/05 08:16:07;;;;;;;11.93;5.07;;;;;;;13.68;98.33;101901.41;5003589;28;21377;-83
2022/05/05 08:18:32;;;;;;;12.07;5.25;;;;;;;13.72;98.82;101896.50;5030983;28;20638;-82
2022/05/05 08:20:58;;;;;;;14.20;5.25;;;;;;;13.79;97.79;101903.75;5030185;28;20457;-81
2022/05/05 08:23:24;;;;;;;14.77;5.78;;;;;;;13.87;97.53;101905.63;5005850;28;20029;-82
2022/05/05 08:28:36;;;;;;;27.05;10.00;;;;;;;13.90;96.56;101901.72;5024653;28;20095;-80
2022/05/05 08:31:03;;;;;;;24.20;9.40;;;;;;;14.11;95.38;101909.31;5022673;28;20051;-83
2022/05/05 08:33:29;;;;;;;20.35;8.40;;;;;;;14.15;94.02;101899.84;5029707;28;20038;-82
2022/05/05 08:35:55;;;;;;;17.27;8.23;;;;;;;14.40;93.70;101914.19;5027871;28;20072;-82
2022/05/05 08:38:21;;;;;;;18.63;6.90;;;;;;;14.57;91.63;101906.88;5036418;28;20537;-82
2022/05/05 08:40:49;;;;;;;17.17;7.13;;;;;;;14.78;90.18;101909.84;5013398;28;20458;-81
2022/05/05 08:43:14;;;;;;;14.73;5.55;;;;;;;15.00;88.66;101902.78;5015090;28;20671;-82
2022/05/05 08:45:40;;;;;;;11.70;6.32;;;;;;;15.13;88.07;101902.22;5031480;28;20120;-83
2022/05/05 08:48:08;;;;;;;13.82;6.03;;;;;;;15.10;87.10;101894.44;5043577;28;20055;-84
2022/05/05 08:50:35;;;;;;;16.02;7.28;;;;;;;15.22;86.70;101906.59;5043971;28;20025;-81
2022/05/05 08:53:02;;;;;;;14.02;6.10;;;;;;;15.20;86.23;101910.50;5027164;28;20120;-81
2022/05/05 08:55:28;;;;;;;13.98;5.82;;;;;;;15.19;86.35;101906.94;5048279;28;20032;-80
2022/05/05 08:57:54;;;;;;;16.90;6.72;;;;;;;15.23;85.43;101899.28;5049778;28;20049;-81
2022/05/05 09:00:20;;;;;;;17.92;6.50;;;;;;;15.25;85.92;101895.38;5026284;28;20030;-80
2022/05/05 09:02:53;;;;;;;18.67;8.48;;;;;;;15.41;85.20;101905.28;5019047;28;20033;-80
2022/05/05 09:05:42;;;;;;;16.25;7.57;;;;;;;15.47;85.64;101906.41;5050000;28;20032;-80
2022/05/05 09:08:11;;;;;;;24.98;9.88;;;;;;;15.51;84.94;101905.88;5043206;28;20083;-80
2022/05/05 09:10:44;;;;;;;17.23;9.35;;;;;;;15.67;85.61;101909.50;5039525;28;20424;-81
2022/05/05 09:13:09;;;;;;;18.90;10.35;;;;;;;15.70;83.75;101904.59;5047339;28;20017;-80
2022/05/05 09:15:36;;;;;;;18.33;9.25;;;;;;;15.80;83.47;101910.59;5035702;28;20040;-80
2022/05/05 09:18:26;;;;;;;16.60;8.45;;;;;;;16.04;82.20;101906.84;5017707;28;20025;-81
2022/05/05 09:20:52;;;;;;;16.77;8.00;;;;;;;16.43;80.91;101910.34;5031679;28;20531;-82
2022/05/05 09:23:36;;;;;;;15.52;7.68;;;;;;;16.59;79.61;101910.16;5029350;28;20168;-82
2022/05/05 09:26:08;;;;;;;15.40;7.80;;;;;;;16.30;80.24;101905.56;5044538;28;20171;-81
2022/05/05 09:28:37;;;;;;;16.15;7.93;;;;;;;15.96;81.39;101912.34;5052201;28;20040;-81
2022/05/05 09:31:07;;;;;;;15.68;7.82;;;;;;;15.70;83.04;101912.72;5053449;28;20032;-79
2022/05/05 09:33:33;;;;;;;17.95;8.85;;;;;;;15.59;83.65;101910.41;5067770;28;20041;-81
2022/05/05 09:36:02;;;;;;;19.55;9.93;;;;;;;15.76;83.25;101911.97;5053255;28;20043;-81
2022/05/05 09:39:03;;;;;;;16.88;9.13;;;;;;;16.03;81.70;101912.44;5034655;28;20033;-81
2022/05/05 09:41:52;;;;;;;20.87;9.60;;;;;;;16.22;81.17;101911.06;5029029;28;20112;-81
2022/05/05 09:44:21;;;;;;;19.90;9.35;;;;;;;16.41;80.34;101910.53;5030200;28;20029;-81
2022/05/05 09:46:46;;;;;;;22.80;11.23;;;;;;;16.47;78.80;101906.22;5034614;28;20133;-82
2022/05/05 09:49:14;;;;;;;20.80;9.02;;;;;;;16.70;78.32;101919.72;5045455;28;20575;-83
2022/05/05 09:51:42;;;;;;;22.92;10.23;;;;;;;16.99;77.62;101913.44;5057750;28;20033;-82
2022/05/05 09:59:49;;;;;;;18.77;8.25;;;;;;;17.39;74.75;101891.31;5051600;28;20475;-80
2022/05/05 10:04:00;;;;;;;18.27;7.70;;;;;;;17.87;74.62;101914.19;5053607;28;20040;-81
2022/05/05 10:05:13;;;;;;;19.17;8.32;;;;;;;18.36;71.58;101915.19;5040970;28;20064;-78
2022/05/05 10:07:44;;;;;;;15.70;6.78;;;;;;;18.76;68.26;101908.13;5040521;28;20050;-78
2022/05/05 10:10:15;;;;;;;15.23;6.82;;;;;;;19.10;66.38;101909.09;5068546;28;20036;-78
2022/05/05 10:12:41;;;;;;;17.58;7.03;;;;;;;19.61;64.80;101910.47;5036866;28;20032;-79
2022/05/05 10:15:07;;;;;;;12.57;6.28;;;;;;;20.23;62.68;101912.00;5068483;28;20052;-78
2022/05/05 10:17:36;;;;;;;12.00;4.65;;;;;;;20.31;59.63;101908.19;5066256;28;20033;-81
2022/05/05 10:20:06;;;;;;;12.30;6.35;;;;;;;20.15;61.38;101907.59;5049497;28;20033;-81
2022/05/05 10:22:48;;;;;;;13.52;6.60;;;;;;;20.32;61.57;101908.00;5032290;28;20367;-81
2022/05/05 10:25:18;;;;;;;14.35;6.03;;;;;;;20.63;61.11;101915.50;5021520;28;20418;-80
2022/05/05 10:27:44;;;;;;;13.13;5.40;;;;;;;20.70;59.85;101912.75;5061209;28;20052;-81
2022/05/05 10:30:15;;;;;;;10.02;4.50;;;;;;;20.29;60.09;101915.75;5050319;28;20029;-80
2022/05/05 10:32:41;;;;;;;10.90;5.43;;;;;;;20.13;61.07;101915.13;5043241;28;20556;-79
2022/05/05 10:35:12;;;;;;;12.80;5.57;;;;;;;19.97;59.97;101904.66;5042074;28;20037;-81
2022/05/05 10:37:39;;;;;;;14.75;6.50;;;;;;;19.95;60.35;101920.41;5056184;28;20079;-82
2022/05/05 10:40:09;;;;;;;14.48;6.55;;;;;;;19.95;60.70;101909.47;5023087;28;20037;-80
2022/05/05 10:42:42;;;;;;;15.07;6.75;;;;;;;20.25;60.47;101917.25;5028304;28;20041;-79
2022/05/05 10:45:36;;;;;;;13.50;6.25;;;;;;;20.76;58.66;101922.00;5048411;28;20071;-81
2022/05/05 10:48:04;;;;;;;12.52;6.18;;;;;;;21.39;54.14;101911.22;5065696;28;20114;-82
2022/05/05 10:50:30;;;;;;;12.32;5.47;;;;;;;21.57;55.10;101924.16;5036743;28;20038;-81
2022/05/05 10:52:57;;;;;;;12.07;5.47;;;;;;;21.59;53.10;101905.59;5043125;28;20458;-80
2022/05/05 10:55:34;;;;;;;13.95;5.72;;;;;;;21.68;53.74;101919.88;5009960;28;20127;-81
2022/05/05 10:58:00;;;;;;;12.75;5.53;;;;;;;21.91;53.08;101916.50;5054485;28;20064;-81
2022/05/05 11:00:44;;;;;;;14.60;5.53;;;;;;;22.29;52.09;101916.44;5049284;28;20072;-81
2022/05/05 11:03:10;;;;;;;11.75;4.53;;;;;;;22.50;50.23;101908.84;5054163;28;20029;-81
2022/05/05 11:05:39;;;;;;;10.70;5.15;;;;;;;22.63;49.11;101913.34;5033102;28;20037;-80
2022/05/05 11:08:14;;;;;;;12.15;5.10;;;;;;;22.21;48.37;101905.75;5013441;28;20033;-80
2022/05/05 11:11:39;;;;;;;9.77;4.18;;;;;;;21.92;49.37;101919.03;5057058;28;20500;-81
2022/05/05 11:13:36;;;;;;;8.82;4.22;;;;;;;21.62;51.10;101921.59;5044872;28;20108;-84
2022/05/05 11:22:09;;;;;;;10.32;4.50;;;;;;;20.54;55.34;101918.72;5037020;28;20064;-82
2022/05/05 11:24:35;;;;;;;12.32;5.25;;;;;;;20.41;56.18;101909.44;5066323;28;20024;-80
2022/05/05 11:27:01;;;;;;;10.50;5.88;;;;;;;20.33;55.74;101919.75;5048155;28;20044;-80
2022/05/05 11:29:29;;;;;;;17.58;6.93;;;;;;;19.92;56.26;101890.78;5037092;28;20048;-82
2022/05/05 11:31:59;;;;;;;10.52;5.22;;;;;;;19.78;57.04;101917.25;5056005;28;20032;-80
2022/05/05 11:34:35;;;;;;;11.98;4.47;;;;;;;19.36;58.41;101900.16;5033423;28;20114;-80
2022/05/05 11:37:01;;;;;;;11.55;4.50;;;;;;;19.21;59.30;101919.44;5024785;28;20032;-81
2022/05/05 11:39:29;;;;;;;8.50;4.10;;;;;;;19.16;59.65;101924.66;5033548;28;20036;-80
2022/05/05 11:41:57;;;;;;;8.40;4.47;;;;;;;18.97;60.62;101922.66;5048013;28;20060;-81
2022/05/05 11:44:24;;;;;;;7.22;3.90;;;;;;;18.87;61.05;101923.06;5056159;28;20037;-80
2022/05/05 11:46:52;;;;;;;7.95;4.20;;;;;;;18.79;60.58;101906.88;5047889;28;20179;-81
2022/05/05 11:49:17;;;;;;;9.25;4.65;;;;;;;18.88;60.66;101911.94;5047504;28;20078;-80
2022/05/05 11:51:43;;;;;;;10.38;3.58;;;;;;;19.06;58.42;101902.38;5035502;28;20037;-81
2022/05/05 11:54:11;;;;;;;11.05;4.10;;;;;;;19.35;58.23;101909.38;5049212;28;20033;-80
2022/05/05 11:56:42;;;;;;;15.80;4.60;;;;;;;19.44;57.84;101916.31;5047246;28;20032;-81
2022/05/05 12:02:21;;;;;;;8.05;3.72;;;;;;;19.46;57.94;101918.84;5031356;28;20132;-80
2022/05/05 12:04:55;;;;;;;7.60;3.50;;;;;;;19.21;58.04;101927.59;5050389;28;20131;-79
2022/05/05 12:07:23;;;;;;;6.55;2.92;;;;;;;18.94;59.53;101923.91;5032741;28;20055;-81
2022/05/05 12:09:49;;;;;;;7.22;3.33;;;;;;;18.78;60.35;101919.66;5050562;28;20116;-81
2022/05/05 12:12:18;;;;;;;10.10;3.40;;;;;;;18.74;59.88;101912.91;5050728;28;20028;-80
2022/05/05 12:14:49;;;;;;;9.65;3.50;;;;;;;18.87;59.82;101915.72;5048889;28;20029;-80
2022/05/05 12:17:18;;;;;;;7.00;3.10;;;;;;;19.16;57.15;101916.47;5045754;28;20040;-80
2022/05/05 12:20:06;;;;;;;7.25;3.17;;;;;;;19.72;55.27;101915.38;5037977;28;20037;-81
2022/05/05 12:22:33;;;;;;;6.63;3.00;;;;;;;20.30;52.51;101912.00;5032146;28;20036;-80
2022/05/05 12:25:07;;;;;;;6.75;3.30;;;;;;;20.98;50.87;101909.69;5021190;28;20414;-83
2022/05/05 12:27:34;;;;;;;9.48;3.75;;;;;;;21.92;48.64;101907.25;5034488;28;20040;-81
2022/05/05 12:30:01;;;;;;;6.70;3.08;;;;;;;22.75;46.38;101898.63;5050828;28;20458;-82
2022/05/05 12:32:27;;;;;;;8.57;2.78;;;;;;;23.33;44.46;101891.78;5022512;28;20497;-81
2022/05/05 12:35:03;;;;;;;4.28;2.42;;;;;;;24.17;42.59;101902.72;5052997;28;20021;-82
2022/05/05 12:37:29;;;;;;;4.30;2.40;;;;;;;23.66;42.81;101895.94;5063214;28;20028;-81
2022/05/05 12:40:02;;;;;;;6.88;2.40;;;;;;;23.05;43.24;101900.63;5058258;28;20086;-81
2022/05/05 12:42:45;;;;;;;8.35;2.20;;;;;;;22.63;44.30;101903.22;5050443;28;20032;-81
2022/05/05 12:45:13;;;;;;;;;;;;;;;22.55;45.28;101904.34;5048783;28;20083;-81
2022/05/05 12:47:41;;;;;;;3.97;1.70;;;;;;;23.91;41.36;101906.75;5050573;28;19917;-81
2022/05/05 12:50:32;;;;;;;3.75;1.98;;;;;;;24.90;38.41;101909.56;5048899;28;20024;-83
2022/05/05 13:01:31;;;;;;;5.07;2.17;;;;;;;27.70;32.56;101888.34;4986495;28;20040;-81
2022/05/05 13:03:58;;;;;;;4.68;2.00;;;;;;;27.80;32.25;101866.31;5033309;28;20037;-81
2022/05/05 13:06:25;;;;;;;5.72;1.77;;;;;;;27.28;32.12;101881.59;5022692;28;20029;-82
2022/05/05 13:08:54;;;;;;;3.38;1.60;;;;;;;25.58;34.78;101888.56;5046263;28;20033;-82